Time;durP1;ratioP1;P1;durP2;ratioP2;P2;SDS_P1;SDS_P2;PMS_P1;PMS_P2;Temp;Humidity;BMP_temperature;BMP_pressure;BME280_temperature;BME280_humidity;BME280_pressure;Samples;Min_cycle;Max_cycle;Signal;HPM_P1;HPM_P2
2023/06/22 00:01:14;;;;;;;;;;;;;;;19.80;69.41;101832.31;5004054;28;1528;-79
2023/06/22 00:03:39;;;;;;;;;;;;;;;19.78;69.59;101823.75;5009772;28;1082;-79
2023/06/22 00:06:05;;;;;;;;;;;;;;;19.75;69.74;101824.91;5008465;28;1975;-79
2023/06/22 00:08:30;;;;;;;;;;;;;;;19.72;70.13;101825.22;5003080;28;1401;-79
2023/06/22 00:10:55;;;;;;;;;;;;;;;19.71;69.84;101833.28;5000544;28;1401;-77
2023/06/22 00:13:20;;;;;;;;;;;;;;;19.68;70.59;101828.34;4999045;28;966;-80
2023/06/22 00:15:46;;;;;;;;;;;;;;;19.65;70.36;101823.38;5004205;28;1095;-79
2023/06/22 00:18:13;;;;;;;;;;;;;;;19.62;70.70;101825.38;5007158;28;1159;-79
2023/06/22 00:20:38;;;;;;;;;;;;;;;19.58;71.14;101817.91;5006756;28;1542;-79
2023/06/22 00:23:08;;;;;;;;;;;;;;;19.56;71.07;101822.53;5011446;28;1498;-79
2023/06/22 00:25:33;;;;;;;;;;;;;;;19.54;71.15;101822.66;5007801;28;1135;-79
2023/06/22 00:27:58;;;;;;;;;;;;;;;19.51;71.01;101820.38;5021437;28;1910;-75
2023/06/22 00:30:23;;;;;;;;;;;;;;;19.47;71.35;101805.88;5009699;28;1330;-78
2023/06/22 00:32:49;;;;;;;;;;;;;;;19.43;71.37;101807.16;5011221;28;1426;-80
2023/06/22 00:35:14;;;;;;;;;;;;;;;19.42;71.87;101812.59;5015824;28;1184;-78
2023/06/22 00:37:42;;;;;;;;;;;;;;;19.37;71.99;101813.88;5003935;28;1140;-78
2023/06/22 00:40:11;;;;;;;;;;;;;;;19.35;72.34;101821.13;5008862;28;1563;-79
2023/06/22 00:42:36;;;;;;;;;;;;;;;19.31;72.79;101816.31;5014397;28;1079;-79
2023/06/22 00:45:01;;;;;;;;;;;;;;;19.30;72.79;101819.94;5011621;28;1070;-79
2023/06/22 00:47:27;;;;;;;;;;;;;;;19.28;72.44;101814.84;5009636;28;1893;-79
2023/06/22 00:49:52;;;;;;;;;;;;;;;19.26;72.83;101814.16;5014953;28;1444;-79
2023/06/22 00:52:21;;;;;;;;;;;;;;;19.27;72.94;101817.66;5013182;28;1131;-79
2023/06/22 00:54:50;;;;;;;;;;;;;;;19.24;73.14;101823.22;5002085;28;1086;-78
2023/06/22 00:57:16;;;;;;;;;;;;;;;19.21;73.53;101826.13;5012862;28;1112;-78
2023/06/22 00:59:42;;;;;;;;;;;;;;;19.20;73.31;101825.31;5006482;28;1264;-79
2023/06/22 01:02:07;;;;;;;;;;;;;;;19.20;73.61;101816.59;5004865;28;1038;-77
2023/06/22 01:04:36;;;;;;;;;;;;;;;19.16;73.59;101813.47;4998268;28;1549;-79
2023/06/22 01:07:22;;;;;;;;;;;;;;;19.13;73.86;101813.78;5008676;28;1902;-78
2023/06/22 01:10:08;;;;;;;;;;;;;;;19.08;73.78;101814.25;5001735;28;1357;-78
2023/06/22 01:12:38;;;;;;;;;;;;;;;19.06;74.39;101803.06;5009229;28;1233;-78
2023/06/22 01:15:22;;;;;;;;;;;;;;;19.03;74.24;101802.56;5004787;28;1079;-79
2023/06/22 01:17:48;;;;;;;;;;;;;;;19.00;74.73;101808.13;4998050;28;1074;-75
2023/06/22 01:20:15;;;;;;;;;;;;;;;18.99;74.73;101802.06;5001648;28;1350;-79
2023/06/22 01:22:49;;;;;;;;;;;;;;;18.97;74.84;101797.91;5018788;28;1199;-79
2023/06/22 01:25:26;;;;;;;;;;;;;;;18.97;74.81;101793.47;5011579;28;1100;-78
2023/06/22 01:27:51;;;;;;;;;;;;;;;18.93;74.73;101802.69;5015141;28;1894;-79
2023/06/22 01:30:18;;;;;;;;;;;;;;;18.90;75.47;101797.72;5016076;28;1361;-78
2023/06/22 01:32:43;;;;;;;;;;;;;;;18.89;75.44;101809.22;5009781;28;1329;-77
2023/06/22 01:35:10;;;;;;;;;;;;;;;18.87;75.68;101803.31;5004965;28;1651;-79
2023/06/22 01:37:36;;;;;;;;;;;;;;;18.82;75.51;101800.31;5010656;28;1179;-79
2023/06/22 01:40:03;;;;;;;;;;;;;;;18.80;75.83;101807.50;5016241;28;1148;-77
2023/06/22 01:42:29;;;;;;;;;;;;;;;18.79;75.93;101795.34;5000238;28;1035;-79
2023/06/22 01:44:55;;;;;;;;;;;;;;;18.75;75.95;101794.00;5008042;28;1287;-78
2023/06/22 01:47:21;;;;;;;;;;;;;;;18.74;76.18;101793.19;5013034;28;1897;-79
2023/06/22 01:49:46;;;;;;;;;;;;;;;18.73;76.25;101793.34;5014727;28;1101;-78
2023/06/22 01:52:11;;;;;;;;;;;;;;;18.72;76.22;101802.22;5013281;28;1091;-78
2023/06/22 01:54:37;;;;;;;;;;;;;;;18.70;76.44;101796.31;5005756;28;1522;-79
2023/06/22 01:57:03;;;;;;;;;;;;;;;18.67;76.73;101796.56;5005904;28;995;-75
2023/06/22 01:59:37;;;;;;;;;;;;;;;18.66;76.41;101802.81;5016400;28;1151;-80
2023/06/22 02:02:07;;;;;;;;;;;;;;;18.65;76.74;101799.34;5003413;28;1261;-78
2023/06/22 02:04:35;;;;;;;;;;;;;;;18.62;76.71;101799.66;5002240;28;1083;-78
2023/06/22 02:07:05;;;;;;;;;;;;;;;18.59;76.76;101799.97;5007733;28;1886;-78
2023/06/22 02:09:31;;;;;;;;;;;;;;;18.57;76.72;101805.34;5000666;28;1024;-79
2023/06/22 02:11:58;;;;;;;;;;;;;;;18.54;76.84;101802.22;5005188;28;1365;-78
2023/06/22 02:14:23;;;;;;;;;;;;;;;18.50;76.99;101804.34;5008726;28;1068;-78
2023/06/22 02:16:50;;;;;;;;;;;;;;;18.48;77.03;101801.03;5004065;28;989;-79
2023/06/22 02:19:15;;;;;;;;;;;;;;;18.46;77.28;101789.84;4998955;28;1365;-78
2023/06/22 02:21:41;;;;;;;;;;;;;;;18.44;77.34;101791.81;4994809;28;1214;-79
2023/06/22 02:24:06;;;;;;;;;;;;;;;18.41;77.36;101792.13;5020989;28;1379;-78
2023/06/22 02:26:32;;;;;;;;;;;;;;;18.38;77.61;101792.41;5015305;28;1958;-78
2023/06/22 02:28:57;;;;;;;;;;;;;;;18.35;77.86;101791.88;5014411;28;1315;-77
2023/06/22 02:31:22;;;;;;;;;;;;;;;18.33;77.76;101789.44;5014327;28;1636;-77
2023/06/22 02:33:48;;;;;;;;;;;;;;;18.32;77.88;101782.53;5022776;28;1129;-78
2023/06/22 02:36:13;;;;;;;;;;;;;;;18.33;77.76;101773.66;5013787;28;1220;-79
2023/06/22 02:38:47;;;;;;;;;;;;;;;18.28;77.79;101775.91;5011318;28;1582;-77
2023/06/22 02:41:14;;;;;;;;;;;;;;;18.24;77.98;101774.59;5014428;28;1225;-77
2023/06/22 02:43:40;;;;;;;;;;;;;;;18.24;78.15;101769.34;5018445;28;1114;-78
2023/06/22 02:46:05;;;;;;;;;;;;;;;18.19;78.10;101772.41;5018945;28;1902;-78
2023/06/22 02:48:30;;;;;;;;;;;;;;;18.17;78.32;101768.28;5005093;28;1381;-78
2023/06/22 02:50:55;;;;;;;;;;;;;;;18.16;78.22;101766.63;5014662;28;1225;-77
2023/06/22 02:53:20;;;;;;;;;;;;;;;18.13;78.36;101767.78;5009526;28;1067;-78
2023/06/22 02:55:46;;;;;;;;;;;;;;;18.13;78.43;101772.22;5011836;28;1336;-78
2023/06/22 02:58:11;;;;;;;;;;;;;;;18.12;78.77;101765.28;5006698;28;1342;-78
2023/06/22 03:00:36;;;;;;;;;;;;;;;18.10;78.44;101773.31;5009536;28;1064;-77
2023/06/22 03:03:01;;;;;;;;;;;;;;;18.09;79.09;101770.84;5009955;28;1056;-79
2023/06/22 03:05:26;;;;;;;;;;;;;;;18.05;79.14;101776.38;5008052;28;1440;-78
2023/06/22 03:07:52;;;;;;;;;;;;;;;18.03;79.26;101765.22;5009961;28;1910;-79
2023/06/22 03:10:17;;;;;;;;;;;;;;;18.00;79.08;101772.56;5009741;28;1088;-76
2023/06/22 03:12:42;;;;;;;;;;;;;;;17.98;79.39;101770.09;5006333;28;1146;-78
2023/06/22 03:15:09;;;;;;;;;;;;;;;17.97;79.46;101768.47;5013585;28;1086;-78
2023/06/22 03:17:34;;;;;;;;;;;;;;;17.96;79.39;101760.75;5007114;28;1494;-78
2023/06/22 03:20:00;;;;;;;;;;;;;;;17.93;79.90;101746.09;5008126;28;1185;-78
2023/06/22 03:22:26;;;;;;;;;;;;;;;17.91;80.32;101745.44;4997680;28;1049;-78
2023/06/22 03:24:51;;;;;;;;;;;;;;;17.90;79.86;101743.78;5003214;28;1153;-78
2023/06/22 03:27:16;;;;;;;;;;;;;;;17.88;79.97;101743.09;4994640;28;1914;-78
2023/06/22 03:29:41;;;;;;;;;;;;;;;17.86;80.17;101739.81;5021026;28;1104;-78
2023/06/22 03:32:06;;;;;;;;;;;;;;;17.83;80.19;101729.59;5010264;28;1072;-79
2023/06/22 03:34:34;;;;;;;;;;;;;;;17.82;80.38;101732.38;5013353;28;1156;-78
2023/06/22 03:36:59;;;;;;;;;;;;;;;17.79;80.33;101738.78;5006082;28;1323;-78
2023/06/22 03:39:24;;;;;;;;;;;;;;;17.81;80.78;101739.44;5016961;28;1322;-78
2023/06/22 03:41:49;;;;;;;;;;;;;;;17.80;80.50;101737.78;5020649;28;1225;-79
2023/06/22 03:44:15;;;;;;;;;;;;;;;17.80;80.47;101735.16;5016804;28;1160;-77
2023/06/22 03:46:40;;;;;;;;;;;;;;;17.81;80.41;101733.38;5012876;28;2058;-78
2023/06/22 03:49:05;;;;;;;;;;;;;;;17.81;80.39;101742.06;5005953;28;1367;-78
2023/06/22 03:51:31;;;;;;;;;;;;;;;17.80;80.48;101734.34;5008202;28;1055;-78
2023/06/22 03:53:56;;;;;;;;;;;;;;;17.80;80.54;101735.16;5020855;28;1114;-76
2023/06/22 03:56:21;;;;;;;;;;;;;;;17.78;80.77;101735.31;5008475;28;947;-74
2023/06/22 03:58:46;;;;;;;;;;;;;;;17.76;81.48;101733.81;5005150;28;1386;-78
2023/06/22 04:01:12;;;;;;;;;;;;;;;17.69;80.72;101727.47;5040580;28;1041;-78
2023/06/22 04:03:37;;;;;;;;;;;;;;;17.67;81.12;101737.31;5004041;28;1068;-76
2023/06/22 04:06:02;;;;;;;;;;;;;;;17.65;80.99;101741.88;5010401;28;1902;-78
2023/06/22 04:08:28;;;;;;;;;;;;;;;17.66;80.77;101733.00;5010349;28;1196;-78
2023/06/22 04:10:53;;;;;;;;;;;;;;;17.68;80.90;101731.09;5000780;28;952;-78
2023/06/22 04:13:18;;;;;;;;;;;;;;;17.70;80.88;101729.13;5008192;28;1370;-78
2023/06/22 04:15:44;;;;;;;;;;;;;;;17.72;80.64;101724.56;5013097;28;1382;-78
2023/06/22 04:18:09;;;;;;;;;;;;;;;17.75;80.55;101717.25;5005860;28;1171;-78
2023/06/22 04:20:34;;;;;;;;;;;;;;;17.78;80.66;101721.38;4998643;28;1433;-78
2023/06/22 04:22:59;;;;;;;;;;;;;;;17.80;80.69;101724.66;5004461;28;1007;-76
2023/06/22 04:25:24;;;;;;;;;;;;;;;17.83;80.71;101734.84;5007707;28;1321;-77
2023/06/22 04:27:50;;;;;;;;;;;;;;;17.83;80.68;101729.59;5009905;28;1961;-79
2023/06/22 04:30:16;;;;;;;;;;;;;;;17.85;80.64;101727.66;5004960;28;1023;-78
2023/06/22 04:32:41;;;;;;;;;;;;;;;17.86;80.63;101729.31;4999226;28;1294;-78
2023/06/22 04:35:06;;;;;;;;;;;;;;;17.88;80.93;101737.84;5010795;28;1077;-75
2023/06/22 04:37:32;;;;;;;;;;;;;;;17.91;80.67;101731.50;5016922;28;966;-77
2023/06/22 04:39:57;;;;;;;;;;;;;;;17.94;80.56;101729.38;4994413;28;1139;-78
2023/06/22 04:42:22;;;;;;;;;;;;;;;17.98;80.60;101724.66;5010502;28;1383;-77
2023/06/22 04:44:47;;;;;;;;;;;;;;;18.00;80.83;101715.63;5005281;28;1290;-78
2023/06/22 04:47:13;;;;;;;;;;;;;;;18.01;80.62;101717.31;5011419;28;1957;-78
2023/06/22 04:49:40;;;;;;;;;;;;;;;18.02;80.41;101718.97;5009764;28;1176;-78
2023/06/22 04:52:06;;;;;;;;;;;;;;;18.06;80.36;101724.72;5014830;28;1120;-77
2023/06/22 04:54:35;;;;;;;;;;;;;;;18.08;80.75;101727.22;5002724;28;1375;-77
2023/06/22 04:57:01;;;;;;;;;;;;;;;18.11;80.76;101722.44;4996554;28;1073;-77
2023/06/22 04:59:28;;;;;;;;;;;;;;;18.12;80.66;101720.66;5009221;28;1237;-78
2023/06/22 05:01:53;;;;;;;;;;;;;;;18.16;81.53;101729.88;5009105;28;1270;-77
2023/06/22 05:04:19;;;;;;;;;;;;;;;18.18;80.91;101728.75;5006184;28;1533;-78
2023/06/22 05:06:45;;;;;;;;;;;;;;;18.20;81.68;101726.81;5005707;28;1947;-78
2023/06/22 05:09:11;;;;;;;;;;;;;;;18.25;81.23;101731.59;5006643;28;1146;-78
2023/06/22 05:11:37;;;;;;;;;;;;;;;18.28;82.10;101736.53;5003634;28;1362;-78
2023/06/22 05:14:02;;;;;;;;;;;;;;;18.28;82.11;101731.28;5006504;28;1157;-78
2023/06/22 05:16:27;;;;;;;;;;;;;;;18.28;82.39;101720.78;5008543;28;1087;-76
2023/06/22 05:18:53;;;;;;;;;;;;;;;18.27;82.82;101719.94;4995381;28;1118;-77
2023/06/22 05:21:21;;;;;;;;;;;;;;;18.31;82.40;101728.34;5007017;28;1350;-78
2023/06/22 05:23:46;;;;;;;;;;;;;;;18.33;82.47;101723.75;5005359;28;1110;-76
2023/06/22 05:26:12;;;;;;;;;;;;;;;18.38;82.91;101729.38;5003849;28;1973;-78
2023/06/22 05:28:37;;;;;;;;;;;;;;;18.41;82.88;101729.09;4997764;28;2284;-78
2023/06/22 05:31:02;;;;;;;;;;;;;;;18.46;82.66;101737.31;5002324;28;1472;-76
2023/06/22 05:33:27;;;;;;;;;;;;;;;18.50;83.45;101733.41;4999379;28;1039;-77
2023/06/22 05:35:52;;;;;;;;;;;;;;;18.55;83.54;101725.06;4992302;28;1232;-76
2023/06/22 05:38:18;;;;;;;;;;;;;;;18.58;82.80;101730.84;5001177;28;1005;-77
2023/06/22 05:40:43;;;;;;;;;;;;;;;18.65;84.45;101736.28;5022011;28;1276;-78
2023/06/22 05:43:08;;;;;;;;;;;;;;;18.68;83.41;101736.00;5008402;28;1196;-78
2023/06/22 05:45:33;;;;;;;;;;;;;;;18.72;83.61;101736.53;5012258;28;991;-78
2023/06/22 05:47:58;;;;;;;;;;;;;;;18.74;83.57;101734.53;5010518;28;1977;-77
2023/06/22 05:50:24;;;;;;;;;;;;;;;18.76;83.59;101743.94;5003192;28;1343;-78
2023/06/22 05:52:49;;;;;;;;;;;;;;;18.81;83.10;101740.84;5013242;28;1464;-78
2023/06/22 05:55:15;;;;;;;;;;;;;;;18.84;83.28;101736.09;5014243;28;1105;-78
2023/06/22 05:57:40;;;;;;;;;;;;;;;18.89;82.96;101733.00;5001082;28;1372;-78
2023/06/22 06:00:10;;;;;;;;;;;;;;;18.92;83.28;101727.41;5007813;28;1367;-77
2023/06/22 06:02:35;;;;;;;;;;;;;;;18.95;83.96;101721.84;5009761;28;1089;-78
2023/06/22 06:05:02;;;;;;;;;;;;;;;18.98;83.34;101726.81;5006675;28;1326;-77
2023/06/22 06:07:27;;;;;;;;;;;;;;;19.00;83.72;101724.81;5007916;28;1898;-78
2023/06/22 06:09:52;;;;;;;;;;;;;;;19.07;83.93;101725.84;5004098;28;1211;-78
2023/06/22 06:12:18;;;;;;;;;;;;;;;19.14;84.08;101725.19;5009547;28;1319;-78
2023/06/22 06:14:43;;;;;;;;;;;;;;;19.21;83.55;101726.19;5006932;28;1392;-77
2023/06/22 06:17:08;;;;;;;;;;;;;;;19.28;84.06;101729.84;5008869;28;1274;-78
2023/06/22 06:19:33;;;;;;;;;;;;;;;19.31;83.50;101713.75;5008023;28;1190;-78
2023/06/22 06:21:59;;;;;;;;;;;;;;;19.37;83.16;101723.63;4998726;28;1469;-78
2023/06/22 06:24:24;;;;;;;;;;;;;;;19.44;83.51;101727.28;5004899;28;1497;-78
2023/06/22 06:26:49;;;;;;;;;;;;;;;19.52;84.05;101714.13;4994680;28;1961;-77
2023/06/22 06:29:16;;;;;;;;;;;;;;;19.58;83.42;101708.25;5006646;28;1365;-79
2023/06/22 06:31:41;;;;;;;;;;;;;;;19.71;84.24;101710.38;5003538;28;1171;-78
2023/06/22 06:34:06;;;;;;;;;;;;;;;19.82;83.30;101711.88;5005968;28;1543;-80
2023/06/22 06:36:31;;;;;;;;;;;;;;;19.94;83.07;101713.19;5006618;28;1189;-79
2023/06/22 06:38:57;;;;;;;;;;;;;;;20.03;82.86;101711.38;5003813;28;1017;-78
2023/06/22 06:41:22;;;;;;;;;;;;;;;20.09;82.09;101711.53;4998636;28;1091;-77
2023/06/22 06:43:48;;;;;;;;;;;;;;;20.17;81.53;101708.88;5012359;28;1439;-78
2023/06/22 06:46:13;;;;;;;;;;;;;;;20.20;81.76;101706.94;5018734;28;1982;-78
2023/06/22 06:48:39;;;;;;;;;;;;;;;20.26;81.87;101701.00;5014203;28;1005;-79
2023/06/22 06:51:05;;;;;;;;;;;;;;;20.35;82.10;101699.97;5009420;28;1085;-77
2023/06/22 06:53:30;;;;;;;;;;;;;;;20.42;81.82;101707.06;5003744;28;1535;-79
2023/06/22 06:55:55;;;;;;;;;;;;;;;20.51;81.57;101707.88;5011399;28;1250;-79
2023/06/22 06:58:22;;;;;;;;;;;;;;;20.58;81.28;101700.94;5011091;28;1031;-79
2023/06/22 07:00:48;;;;;;;;;;;;;;;20.63;80.83;101709.16;5002567;28;1271;-78
2023/06/22 07:03:13;;;;;;;;;;;;;;;20.66;80.51;101708.84;5014461;28;1263;-78
2023/06/22 07:05:38;;;;;;;;;;;;;;;20.69;80.26;101708.47;5008591;28;1264;-78
2023/06/22 07:08:03;;;;;;;;;;;;;;;20.73;80.63;101713.41;5011972;28;1947;-78
2023/06/22 07:10:29;;;;;;;;;;;;;;;20.78;80.71;101711.91;5002916;28;1382;-78
2023/06/22 07:12:54;;;;;;;;;;;;;;;20.86;81.13;101708.41;5003175;28;1274;-80
2023/06/22 07:15:20;;;;;;;;;;;;;;;20.90;80.39;101712.38;5011720;28;1004;-79
2023/06/22 07:17:45;;;;;;;;;;;;;;;20.97;80.11;101704.59;5010429;28;1231;-78
2023/06/22 07:20:11;;;;;;;;;;;;;;;21.02;80.05;101703.06;5011731;28;1355;-77
2023/06/22 07:22:42;;;;;;;;;;;;;;;21.07;79.51;101695.47;5009769;28;1057;-79
2023/06/22 07:25:13;;;;;;;;;;;;;;;21.12;79.19;101698.41;5008002;28;1103;-77
2023/06/22 07:27:42;;;;;;;;;;;;;;;21.18;79.07;101692.44;5011357;28;1969;-78
2023/06/22 07:30:08;;;;;;;;;;;;;;;21.26;79.10;101688.09;5008952;28;1683;-78
2023/06/22 07:32:33;;;;;;;;;;;;;;;21.34;78.98;101696.03;5006420;28;1223;-79
2023/06/22 07:34:58;;;;;;;;;;;;;;;21.40;78.15;101690.03;5006859;28;964;-79
2023/06/22 07:37:24;;;;;;;;;;;;;;;21.43;78.35;101679.94;5005949;28;1308;-78
2023/06/22 07:39:53;;;;;;;;;;;;;;;21.49;78.05;101681.06;5028191;28;1017;-79
2023/06/22 07:42:18;;;;;;;;;;;;;;;21.52;77.76;101688.63;4999464;28;1200;-78
2023/06/22 07:44:44;;;;;;;;;;;;;;;21.52;77.26;101680.72;5000067;28;1374;-78
2023/06/22 07:47:09;;;;;;;;;;;;;;;21.54;77.15;101680.53;5015868;28;1894;-79
2023/06/22 07:49:34;;;;;;;;;;;;;;;21.59;76.63;101679.00;5008536;28;1057;-78
2023/06/22 07:52:01;;;;;;;;;;;;;;;21.65;77.06;101683.56;5007050;28;1162;-78
2023/06/22 07:54:26;;;;;;;;;;;;;;;21.76;76.34;101684.16;5014206;28;1346;-78
2023/06/22 07:56:51;;;;;;;;;;;;;;;21.79;75.46;101678.50;5016161;28;1379;-78
2023/06/22 07:59:17;;;;;;;;;;;;;;;21.82;75.30;101672.88;5008026;28;1062;-78
2023/06/22 08:01:42;;;;;;;;;;;;;;;21.87;75.00;101670.53;5005420;28;1261;-77
2023/06/22 08:04:08;;;;;;;;;;;;;;;21.93;74.58;101665.34;5008109;28;1564;-79
2023/06/22 08:06:33;;;;;;;;;;;;;;;22.01;74.17;101659.16;5010656;28;1890;-80
2023/06/22 08:08:58;;;;;;;;;;;;;;;22.08;73.26;101660.09;5011267;28;1138;-79
2023/06/22 08:11:25;;;;;;;;;;;;;;;22.14;73.29;101646.19;5013904;28;1350;-80
2023/06/22 08:13:50;;;;;;;;;;;;;;;22.19;73.19;101643.00;5009375;28;1004;-78
2023/06/22 08:16:15;;;;;;;;;;;;;;;22.23;72.82;101639.00;5008671;28;1465;-78
2023/06/22 08:18:40;;;;;;;;;;;;;;;22.30;73.63;101634.59;5013373;28;1095;-79
2023/06/22 08:21:05;;;;;;;;;;;;;;;22.33;72.91;101621.03;5009118;28;1267;-78
2023/06/22 08:23:31;;;;;;;;;;;;;;;22.40;71.75;101624.59;5002814;28;1315;-79
2023/06/22 08:25:56;;;;;;;;;;;;;;;22.44;71.54;101622.41;5011419;28;1087;-79
2023/06/22 08:28:21;;;;;;;;;;;;;;;22.47;71.25;101619.38;5016129;28;1968;-79
2023/06/22 08:30:46;;;;;;;;;;;;;;;22.49;70.66;101618.22;5001629;28;1358;-80
2023/06/22 08:33:12;;;;;;;;;;;;;;;22.51;70.79;101610.09;5006081;28;1636;-79
2023/06/22 08:35:38;;;;;;;;;;;;;;;22.51;68.71;101610.91;5002306;28;1051;-78
2023/06/22 08:38:03;;;;;;;;;;;;;;;22.52;68.02;101614.38;5005029;28;1118;-78
2023/06/22 08:40:29;;;;;;;;;;;;;;;22.55;68.79;101616.66;5033579;28;1202;-78
2023/06/22 08:42:54;;;;;;;;;;;;;;;22.60;68.81;101614.28;5007083;28;1561;-78
2023/06/22 08:45:20;;;;;;;;;;;;;;;22.63;67.56;101621.81;5006889;28;1060;-81
2023/06/22 08:47:45;;;;;;;;;;;;;;;22.65;67.80;101617.19;5000530;28;1894;-78
2023/06/22 08:50:11;;;;;;;;;;;;;;;22.70;67.67;101614.78;5009882;28;1370;-77
2023/06/22 08:52:37;;;;;;;;;;;;;;;22.77;67.28;101609.59;5008829;28;1014;-78
2023/06/22 08:55:02;;;;;;;;;;;;;;;22.79;66.41;101613.69;5017454;28;1083;-78
2023/06/22 08:57:27;;;;;;;;;;;;;;;22.83;66.66;101618.59;5000983;28;1165;-78
2023/06/22 08:59:53;;;;;;;;;;;;;;;22.87;66.71;101617.22;5008223;28;1264;-79
2023/06/22 09:02:19;;;;;;;;;;;;;;;22.89;66.90;101610.78;5040988;28;1180;-79
2023/06/22 09:04:45;;;;;;;;;;;;;;;22.91;65.20;101610.56;5006375;28;1097;-78
2023/06/22 09:07:11;;;;;;;;;;;;;;;22.92;65.31;101609.56;5010758;28;1965;-77
2023/06/22 09:09:36;;;;;;;;;;;;;;;22.95;65.62;101611.84;5007511;28;1300;-78
2023/06/22 09:12:02;;;;;;;;;;;;;;;22.96;65.16;101624.06;5003731;28;1527;-78
2023/06/22 09:14:27;;;;;;;;;;;;;;;22.96;64.36;101616.13;5013510;28;1080;-76
2023/06/22 09:16:52;;;;;;;;;;;;;;;22.98;65.27;101606.16;5003094;28;1535;-77
2023/06/22 09:19:17;;;;;;;;;;;;;;;23.00;64.58;101614.75;5003840;28;1311;-77
2023/06/22 09:21:43;;;;;;;;;;;;;;;23.01;65.51;101611.09;5011683;28;1235;-77
2023/06/22 09:24:08;;;;;;;;;;;;;;;23.05;65.35;101601.75;5013350;28;1228;-78
2023/06/22 09:26:33;;;;;;;;;;;;;;;23.08;64.70;101601.41;5009774;28;1902;-77
2023/06/22 09:28:58;;;;;;;;;;;;;;;23.09;64.35;101603.03;5009024;28;1550;-77
2023/06/22 09:31:26;;;;;;;;;;;;;;;23.13;64.95;101601.66;5004752;28;1099;-77
2023/06/22 09:33:52;;;;;;;;;;;;;;;23.15;65.28;101599.63;5004500;28;1339;-77
2023/06/22 09:36:18;;;;;;;;;;;;;;;23.13;64.94;101604.28;5005033;28;1422;-78
2023/06/22 09:38:43;;;;;;;;;;;;;;;23.15;64.43;101601.47;4994444;28;1255;-77
2023/06/22 09:41:08;;;;;;;;;;;;;;;23.16;63.30;101608.38;4998728;28;1312;-76
2023/06/22 09:43:36;;;;;;;;;;;;;;;23.16;64.27;101609.19;5008489;28;1201;-76
2023/06/22 09:46:02;;;;;;;;;;;;;;;23.18;63.66;101601.91;5000222;28;1358;-79
2023/06/22 09:48:27;;;;;;;;;;;;;;;23.17;63.49;101599.44;5005149;28;1945;-77
2023/06/22 09:50:52;;;;;;;;;;;;;;;23.16;63.58;101598.59;5006332;28;1015;-77
2023/06/22 09:53:17;;;;;;;;;;;;;;;23.16;62.34;101603.91;5003472;28;1272;-77
2023/06/22 09:55:43;;;;;;;;;;;;;;;23.14;62.09;101592.69;5006712;28;1307;-79
2023/06/22 09:58:08;;;;;;;;;;;;;;;23.13;61.92;101588.41;5008921;28;1188;-78
2023/06/22 10:00:33;;;;;;;;;;;;;;;23.13;63.22;101588.41;5006488;28;1097;-78
2023/06/22 10:02:59;;;;;;;;;;;;;;;23.10;60.56;101594.06;5010111;28;1633;-78
2023/06/22 10:05:25;;;;;;;;;;;;;;;23.08;61.38;101596.09;5011997;28;1236;-76
2023/06/22 10:07:50;;;;;;;;;;;;;;;23.07;62.32;101591.81;5000394;28;1954;-78
2023/06/22 10:10:15;;;;;;;;;;;;;;;23.10;62.43;101598.56;5010863;28;1481;-77
2023/06/22 10:12:42;;;;;;;;;;;;;;;23.09;62.79;101597.72;5017620;28;1429;-77
2023/06/22 10:15:07;;;;;;;;;;;;;;;23.09;62.83;101592.44;5004443;28;1134;-77
2023/06/22 10:17:32;;;;;;;;;;;;;;;23.10;62.59;101591.44;5016611;28;1183;-77
2023/06/22 10:19:58;;;;;;;;;;;;;;;23.08;62.01;101596.09;5008655;28;1234;-76
2023/06/22 10:22:23;;;;;;;;;;;;;;;23.06;62.71;101584.91;5009929;28;1265;-77
2023/06/22 10:24:48;;;;;;;;;;;;;;;23.04;62.35;101579.78;5004970;28;1160;-78
2023/06/22 10:27:13;;;;;;;;;;;;;;;23.06;62.20;101582.25;5011830;28;1906;-77
2023/06/22 10:29:39;;;;;;;;;;;;;;;23.03;62.27;101578.13;5011763;28;1152;-77
2023/06/22 10:32:04;;;;;;;;;;;;;;;23.01;61.67;101576.69;5000379;28;1351;-77
2023/06/22 10:34:30;;;;;;;;;;;;;;;22.99;62.60;101578.69;5010917;28;1318;-77
2023/06/22 10:36:55;;;;;;;;;;;;;;;22.99;62.93;101576.06;5011024;28;1330;-77
2023/06/22 10:39:20;;;;;;;;;;;;;;;22.98;62.76;101579.72;5013251;28;1271;-78
2023/06/22 10:41:45;;;;;;;;;;;;;;;22.98;62.57;101580.53;5012192;28;1242;-77
2023/06/22 10:44:12;;;;;;;;;;;;;;;22.97;62.58;101578.09;5016805;28;1448;-77
2023/06/22 10:46:37;;;;;;;;;;;;;;;22.96;62.65;101576.44;5007676;28;1969;-77
2023/06/22 10:49:02;;;;;;;;;;;;;;;22.97;62.20;101583.38;5012233;28;1087;-76
2023/06/22 10:51:28;;;;;;;;;;;;;;;22.95;62.61;101577.47;5001776;28;1644;-77
2023/06/22 10:53:53;;;;;;;;;;;;;;;22.94;63.04;101583.72;4996886;28;1141;-77
2023/06/22 10:56:19;;;;;;;;;;;;;;;22.95;63.16;101580.09;5004039;28;1457;-77
2023/06/22 10:58:44;;;;;;;;;;;;;;;22.89;63.35;101575.56;5011045;28;1052;-76
2023/06/22 11:01:10;;;;;;;;;;;;;;;22.88;63.72;101579.19;5003788;28;1270;-77
2023/06/22 11:03:35;;;;;;;;;;;;;;;22.89;64.16;101573.75;5013740;28;1050;-76
2023/06/22 11:06:00;;;;;;;;;;;;;;;22.89;63.96;101575.56;5012928;28;1383;-77
2023/06/22 11:08:25;;;;;;;;;;;;;;;22.89;63.91;101575.56;5015898;28;1963;-77
2023/06/22 11:10:51;;;;;;;;;;;;;;;22.86;63.87;101581.19;5017052;28;1171;-77
2023/06/22 11:13:16;;;;;;;;;;;;;;;22.86;63.99;101576.72;5015259;28;1113;-78
2023/06/22 11:15:41;;;;;;;;;;;;;;;22.87;64.06;101577.53;5011773;28;1331;-76
2023/06/22 11:18:07;;;;;;;;;;;;;;;22.86;64.37;101581.19;5012883;28;1109;-77
2023/06/22 11:20:34;;;;;;;;;;;;;;;22.86;64.22;101581.19;5006807;28;1181;-76
2023/06/22 11:22:59;;;;;;;;;;;;;;;22.86;64.42;101581.19;5012000;28;1271;-77
2023/06/22 11:25:25;;;;;;;;;;;;;;;22.86;64.66;101581.19;5004139;28;1227;-77
2023/06/22 11:27:51;;;;;;;;;;;;;;;22.82;64.63;101582.56;5003553;28;1925;-78
2023/06/22 11:30:16;;;;;;;;;;;;;;;22.83;65.39;101581.56;5012266;28;976;-78
2023/06/22 11:32:41;;;;;;;;;;;;;;;22.80;65.53;101578.28;5004352;28;1398;-77
2023/06/22 11:35:07;;;;;;;;;;;;;;;22.78;66.77;101585.59;5033599;28;1163;-77
2023/06/22 11:37:32;;;;;;;;;;;;;;;22.77;66.05;101583.97;5026321;28;1449;-78
2023/06/22 11:39:58;;;;;;;;;;;;;;;22.77;66.14;101586.59;5001216;28;962;-79
2023/06/22 11:42:23;;;;;;;;;;;;;;;22.78;66.46;101579.50;5004289;28;1314;-77
2023/06/22 11:44:49;;;;;;;;;;;;;;;22.79;66.83;101587.22;5001912;28;1537;-78
2023/06/22 11:47:14;;;;;;;;;;;;;;;22.80;67.14;101588.03;5002919;28;1961;-79
2023/06/22 11:49:40;;;;;;;;;;;;;;;22.79;67.10;101592.50;5009800;28;1166;-79
2023/06/22 11:52:05;;;;;;;;;;;;;;;22.75;68.22;101579.84;4995157;28;1302;-77
2023/06/22 11:54:30;;;;;;;;;;;;;;;22.73;68.21;101577.41;5002130;28;1232;-79
2023/06/22 11:56:55;;;;;;;;;;;;;;;22.69;69.03;101570.84;5001763;28;1150;-78
2023/06/22 11:59:22;;;;;;;;;;;;;;;22.62;69.18;101569.94;5002468;28;1014;-77
2023/06/22 12:01:47;;;;;;;;;;;;;;;22.56;69.91;101575.16;5006406;28;1327;-77
2023/06/22 12:04:12;;;;;;;;;;;;;;;22.49;70.53;101580.38;5011075;28;1021;-76
2023/06/22 12:06:41;;;;;;;;;;;;;;;22.43;70.01;101575.84;5009760;28;1898;-76
2023/06/22 12:09:06;;;;;;;;;;;;;;;22.32;70.79;101579.75;5006462;28;1231;-77
2023/06/22 12:11:31;;;;;;;;;;;;;;;22.22;70.07;101564.19;5009798;28;1335;-77
2023/06/22 12:14:01;;;;;;;;;;;;;;;22.11;70.82;101564.66;5008857;28;1104;-76
2023/06/22 12:16:26;;;;;;;;;;;;;;;21.98;71.36;101567.09;5009996;28;1082;-76
2023/06/22 12:18:52;;;;;;;;;;;;;;;21.89;71.88;101560.25;5004869;28;1086;-76
2023/06/22 12:21:17;;;;;;;;;;;;;;;21.82;72.59;101561.97;5007875;28;1366;-75
2023/06/22 12:23:42;;;;;;;;;;;;;;;21.78;72.49;101560.69;5012269;28;1021;-74
2023/06/22 12:26:07;;;;;;;;;;;;;;;21.68;74.53;101566.25;5002884;28;1051;-75
2023/06/22 12:28:32;;;;;;;;;;;;;;;21.57;75.48;101574.59;5015294;28;1956;-74
2023/06/22 12:30:59;;;;;;;;;;;;;;;21.47;75.96;101574.84;5007220;28;1096;-75
2023/06/22 12:33:24;;;;;;;;;;;;;;;21.39;76.50;101578.38;5015851;28;1119;-75
2023/06/22 12:35:49;;;;;;;;;;;;;;;21.28;79.30;101570.84;5012847;28;1100;-74
2023/06/22 12:38:14;;;;;;;;;;;;;;;21.16;79.47;101566.97;5007080;28;1435;-74
2023/06/22 12:40:39;;;;;;;;;;;;;;;21.07;80.04;101560.94;5000552;28;1197;-72